< Typhoon 199416 1994 Season Typhoon 199418 >
Typhoon 199417 (GLADYS)
General InformationTrack Information on Google MapsDetailed Wind InformationList of All Images || Disaster Info.ResourceGoogle EarthGE AnimationAtom FeedGeoJSON
Detalied Best Track (Time Zone = UTC)
Year Month Day Hour Lat. Long. Pressure (hPa) Wind (kt) Class Image Chart
1994 8 20 12 17.8 155.1 1006 0 2 Image Chart
1994 8 20 18 18.8 155.4 1006 0 2 Image Chart
1994 8 21 00 20.0 155.8 1008 0 2 Image Chart
1994 8 21 06 21.0 156.4 1008 0 2 Image Chart
1994 8 21 12 21.8 156.8 1008 0 2 Image Chart
1994 8 21 18 22.6 157.3 1008 0 2 Image Chart
1994 8 22 00 23.1 157.8 1010 0 2 Image Chart
1994 8 22 06 23.6 158.4 1008 0 2 Image Chart
1994 8 22 12 24.1 158.9 1008 0 2 Image Chart
1994 8 22 18 24.3 159.0 1008 0 2 Image Chart
1994 8 23 00 24.5 158.8 1008 0 2 Image Chart
1994 8 23 06 24.4 158.3 1008 0 2 Image Chart
1994 8 23 12 24.2 157.8 1006 0 2 Image Chart
1994 8 23 18 24.0 157.3 1006 0 2 Image Chart
1994 8 24 00 23.8 156.8 1004 0 2 Image Chart
1994 8 24 06 23.8 156.3 1002 0 2 Image Chart
1994 8 24 12 23.7 155.8 1000 35 3 Image Chart
1994 8 24 18 23.7 155.4 998 35 3 Image Chart
1994 8 25 00 23.7 155.0 996 40 3 Image Chart
1994 8 25 06 23.7 154.5 992 45 3 Image Chart
1994 8 25 12 23.8 153.8 990 50 4 Image Chart
1994 8 25 18 24.0 153.1 990 50 4 Image Chart
1994 8 26 00 24.2 152.3 985 55 4 Image Chart
1994 8 26 06 24.3 151.6 985 55 4 Image Chart
1994 8 26 12 24.4 150.7 985 55 4 Image Chart
1994 8 26 18 24.4 149.6 985 55 4 Image Chart
1994 8 27 00 24.5 148.5 990 50 4 Image Chart
1994 8 27 06 24.5 147.4 990 50 4 Image Chart
1994 8 27 12 24.3 146.5 992 45 3 Image Chart
1994 8 27 18 24.0 145.8 994 40 3 Image Chart
1994 8 28 00 23.5 145.0 994 40 3 Image Chart
1994 8 28 06 22.7 144.1 994 40 3 Image Chart
1994 8 28 12 22.1 143.1 996 35 3 Image Chart
1994 8 28 18 21.7 142.2 998 35 3 Image Chart
1994 8 29 00 21.6 140.7 998 35 3 Image Chart
1994 8 29 06 21.6 139.3 996 35 3 Image Chart
1994 8 29 12 21.6 138.1 996 35 3 Image Chart
1994 8 29 18 21.7 136.5 996 35 3 Image Chart
1994 8 30 00 21.8 135.0 996 35 3 Image Chart
1994 8 30 06 22.0 133.1 994 40 3 Image Chart
1994 8 30 12 22.1 131.6 990 45 3 Image Chart
1994 8 30 18 22.2 130.1 985 50 4 Image Chart
1994 8 31 00 22.3 128.1 980 55 4 Image Chart
1994 8 31 06 22.7 126.5 965 70 5 Image Chart
1994 8 31 09 22.9 125.8 960 75 5 Image Chart
1994 8 31 12 23.0 125.0 955 80 5 Image Chart
1994 8 31 15 23.2 124.4 955 80 5 Image Chart
1994 8 31 18 23.5 123.7 955 80 5 Image Chart
1994 8 31 21 23.7 123.1 955 80 5 Image Chart
1994 9 1 00 24.0 122.5 960 75 5 Image Chart
1994 9 1 03 24.6 121.8 975 65 5 Image Chart
1994 9 1 06 25.1 121.0 980 60 4 Image Chart
1994 9 1 12 25.4 119.8 985 50 4 Image Chart
1994 9 1 18 26.0 118.5 996 35 3 Image Chart
1994 9 2 00 27.7 117.1 1006 0 2 Image Chart
1994 9 2 06 28.8 116.5 1008 0 2 Image Chart
1994 9 2 12 30.0 116.2 1008 0 2 Image Chart
1994 9 2 18 31.5 116.5 1008 0 2 Image Chart
1994 9 3 00 32.8 116.8 1008 0 2 Image Chart
1994 9 3 06 34.0 117.2 1006 0 2 Image Chart
1994 9 3 12 35.5 117.6 1004 0 2 Image Chart
1994 9 3 18 36.8 118.1 1002 0 2 Image Chart
1994 9 4 00 38.1 119.1 1000 0 2 Image Chart
Japan Meteorological Agency Best Track Data | Correction Date : 1995-01-30
< Typhoon 199416 1994 Season Typhoon 199418 >

Help